Time;durP1;ratioP1;P1;durP2;ratioP2;P2;SDS_P1;SDS_P2;PMS_P1;PMS_P2;Temp;Humidity;BMP_temperature;BMP_pressure;BME280_temperature;BME280_humidity;BME280_pressure;Samples;Min_cycle;Max_cycle;Signal;HPM_P1;HPM_P2
2021/04/08 00:01:47;;;;;;;8.20;5.60;;;5.80;99.90;;;;;;5059928;28;20312;-78
2021/04/08 00:04:13;;;;;;;9.70;6.10;;;5.80;99.90;;;;;;5070320;28;20984;-79
2021/04/08 00:06:40;;;;;;;9.47;5.70;;;5.70;99.90;;;;;;5052573;28;20291;-78
2021/04/08 00:09:06;;;;;;;8.70;6.07;;;5.70;99.90;;;;;;5046910;28;20298;-78
2021/04/08 00:11:33;;;;;;;8.97;5.40;;;5.70;99.90;;;;;;5048689;28;20283;-78
2021/04/08 00:14:00;;;;;;;8.13;5.47;;;5.70;99.90;;;;;;5049885;28;20658;-78
2021/04/08 00:16:26;;;;;;;7.83;5.43;;;5.60;99.90;;;;;;5059012;28;20285;-78
2021/04/08 00:18:53;;;;;;;8.97;5.43;;;5.50;99.90;;;;;;5052602;28;20234;-78
2021/04/08 00:21:19;;;;;;;8.20;5.40;;;5.50;99.90;;;;;;5038975;28;20641;-78
2021/04/08 00:23:46;;;;;;;8.63;5.90;;;5.50;99.90;;;;;;5031938;28;20203;-78
2021/04/08 00:26:12;;;;;;;8.83;5.63;;;5.40;99.90;;;;;;5031760;28;20638;-78
2021/04/08 00:28:39;;;;;;;8.40;5.70;;;5.40;99.90;;;;;;5043823;28;20681;-78
2021/04/08 00:31:06;;;;;;;10.27;5.83;;;5.40;99.90;;;;;;5052076;28;20760;-78
2021/04/08 00:33:32;;;;;;;10.37;5.27;;;5.30;99.90;;;;;;5034957;28;20266;-78
2021/04/08 00:35:59;;;;;;;7.53;5.50;;;5.30;99.90;;;;;;5032186;28;20692;-78
2021/04/08 00:38:25;;;;;;;7.27;4.90;;;5.10;99.90;;;;;;5041746;28;20306;-78
2021/04/08 00:40:52;;;;;;;7.13;5.07;;;5.10;99.90;;;;;;5051219;28;20697;-78
2021/04/08 00:43:18;;;;;;;8.57;4.70;;;5.00;99.90;;;;;;5052439;28;20625;-78
2021/04/08 00:45:45;;;;;;;7.87;4.40;;;4.90;99.90;;;;;;5031726;28;20245;-78
2021/04/08 00:48:12;;;;;;;8.10;4.60;;;4.90;99.90;;;;;;5032100;28;20235;-78
2021/04/08 00:50:38;;;;;;;8.23;4.30;;;4.90;99.90;;;;;;5032033;28;20620;-78
2021/04/08 00:53:09;;;;;;;8.93;3.53;;;4.90;99.90;;;;;;5032358;28;20207;-78
2021/04/08 00:55:39;;;;;;;7.90;3.77;;;4.90;99.90;;;;;;5031662;28;20293;-78
2021/04/08 00:58:06;;;;;;;5.40;3.23;;;4.90;99.90;;;;;;5031706;28;20249;-78
2021/04/08 01:00:34;;;;;;;10.17;3.70;;;4.90;99.90;;;;;;5037180;28;20217;-78
2021/04/08 01:03:01;;;;;;;7.73;3.47;;;4.90;99.90;;;;;;5055752;28;20197;-78
2021/04/08 01:05:29;;;;;;;6.60;3.03;;;4.80;99.90;;;;;;5036566;28;20288;-78
2021/04/08 01:07:55;;;;;;;7.67;4.20;;;4.70;99.90;;;;;;5051601;28;20224;-78
2021/04/08 01:10:23;;;;;;;7.73;4.93;;;4.60;99.90;;;;;;5055349;28;20710;-79
2021/04/08 01:12:52;;;;;;;7.37;4.90;;;4.50;99.90;;;;;;5048383;28;20296;-78
2021/04/08 01:15:19;;;;;;;7.90;4.87;;;4.40;99.90;;;;;;5055599;28;20257;-78
2021/04/08 01:17:49;;;;;;;6.83;4.67;;;4.30;99.90;;;;;;5054830;28;20287;-78
2021/04/08 01:20:53;;;;;;;8.70;5.20;;;4.20;99.90;;;;;;5054970;28;20774;-78
2021/04/08 01:24:01;;;;;;;8.00;4.33;;;4.10;99.90;;;;;;5013572;28;20241;-78
2021/04/08 01:27:07;;;;;;;7.17;4.87;;;4.00;99.90;;;;;;4994312;28;20304;-77
2021/04/08 01:29:55;;;;;;;9.93;4.67;;;3.90;99.90;;;;;;5005171;28;20655;-79
2021/04/08 01:32:25;;;;;;;9.23;5.03;;;3.90;99.90;;;;;;5012057;28;20319;-78
2021/04/08 01:34:54;;;;;;;7.97;4.77;;;3.90;99.90;;;;;;5011365;28;20685;-79
2021/04/08 01:37:26;;;;;;;8.10;5.03;;;3.80;99.90;;;;;;5012525;28;20286;-77
2021/04/08 01:39:54;;;;;;;8.60;4.73;;;3.60;99.90;;;;;;5000877;28;20895;-77
2021/04/08 01:42:22;;;;;;;7.37;4.73;;;3.50;99.90;;;;;;4992206;28;20296;-78
2021/04/08 01:44:50;;;;;;;6.47;4.63;;;3.50;99.90;;;;;;4993392;28;20206;-77
2021/04/08 01:47:17;;;;;;;8.63;4.73;;;3.40;99.90;;;;;;5011990;28;20291;-79
2021/04/08 01:49:45;;;;;;;7.07;4.80;;;3.30;99.90;;;;;;5012164;28;20405;-77
2021/04/08 01:52:14;;;;;;;11.00;4.80;;;3.30;99.90;;;;;;5012644;28;20287;-78
2021/04/08 01:54:44;;;;;;;8.43;4.50;;;3.20;99.90;;;;;;5012113;28;20205;-77
2021/04/08 01:57:13;;;;;;;7.90;4.90;;;3.20;99.90;;;;;;5011513;28;20673;-78
2021/04/08 01:59:43;;;;;;;8.70;4.77;;;3.10;99.90;;;;;;5023540;28;20291;-77
2021/04/08 02:02:11;;;;;;;8.70;5.00;;;3.10;99.90;;;;;;5066936;28;20230;-77
2021/04/08 02:04:39;;;;;;;9.00;4.80;;;3.00;99.90;;;;;;5033940;28;20228;-77
2021/04/08 02:07:07;;;;;;;7.67;4.30;;;3.00;99.90;;;;;;5045579;28;20298;-77
2021/04/08 02:09:37;;;;;;;9.63;5.33;;;2.90;99.90;;;;;;5043237;28;20249;-77
2021/04/08 02:12:06;;;;;;;10.23;5.67;;;2.90;99.90;;;;;;5051063;28;20222;-77
2021/04/08 02:14:34;;;;;;;10.47;5.80;;;3.00;99.90;;;;;;5041433;28;20349;-77
2021/04/08 02:17:02;;;;;;;8.47;5.00;;;2.90;99.90;;;;;;5045515;28;20285;-78
2021/04/08 02:19:29;;;;;;;7.90;5.10;;;2.80;99.90;;;;;;5053502;28;20234;-78
2021/04/08 02:21:56;;;;;;;8.73;4.80;;;2.70;99.90;;;;;;5051579;28;20218;-77
2021/04/08 02:24:24;;;;;;;8.80;5.30;;;2.70;99.90;;;;;;5057262;28;20220;-77
2021/04/08 02:26:51;;;;;;;8.20;4.97;;;2.70;99.90;;;;;;5053185;28;20296;-77
2021/04/08 02:29:21;;;;;;;7.30;4.73;;;2.60;99.90;;;;;;5037725;28;20727;-77
2021/04/08 02:31:48;;;;;;;9.67;5.17;;;2.70;99.90;;;;;;5033317;28;20310;-77
2021/04/08 02:34:16;;;;;;;11.37;5.60;;;2.70;99.90;;;;;;5033572;28;20423;-77
2021/04/08 02:36:42;;;;;;;9.30;5.50;;;2.70;99.90;;;;;;5051173;28;20656;-77
2021/04/08 02:39:10;;;;;;;9.00;5.30;;;2.60;99.90;;;;;;5052521;28;20237;-77
2021/04/08 02:41:39;;;;;;;12.10;5.80;;;2.50;99.90;;;;;;5052580;28;20222;-76
2021/04/08 02:44:06;;;;;;;6.73;5.10;;;2.50;99.90;;;;;;5046225;28;20293;-77
2021/04/08 02:46:32;;;;;;;8.70;5.20;;;2.40;99.90;;;;;;5033406;28;20406;-77
2021/04/08 02:48:59;;;;;;;9.27;4.67;;;2.40;99.90;;;;;;5049981;28;20259;-78
2021/04/08 02:51:29;;;;;;;6.90;4.73;;;2.30;99.90;;;;;;5053164;28;20197;-78
2021/04/08 02:54:00;;;;;;;9.07;5.00;;;2.20;99.90;;;;;;5041055;28;20234;-78
2021/04/08 02:56:33;;;;;;;9.10;5.53;;;2.20;99.90;;;;;;5035437;28;20246;-78
2021/04/08 02:59:19;;;;;;;13.23;5.70;;;2.20;99.90;;;;;;5036243;28;20243;-78
2021/04/08 03:01:51;;;;;;;9.03;4.80;;;2.10;99.90;;;;;;5072730;28;20650;-78
2021/04/08 03:04:21;;;;;;;8.27;4.80;;;2.10;99.90;;;;;;5072270;28;20704;-78
2021/04/08 03:06:49;;;;;;;6.37;4.60;;;2.00;99.90;;;;;;5073063;28;20287;-78
2021/04/08 03:09:17;;;;;;;6.20;4.30;;;1.90;99.90;;;;;;5063164;28;20267;-78
2021/04/08 03:11:47;;;;;;;8.37;4.57;;;1.90;99.90;;;;;;5050058;28;20278;-78
2021/04/08 03:14:16;;;;;;;10.97;5.10;;;1.80;99.90;;;;;;5042007;28;20301;-78
2021/04/08 03:16:47;;;;;;;7.90;5.00;;;1.80;99.90;;;;;;5043900;28;20749;-79
2021/04/08 03:19:20;;;;;;;7.87;4.47;;;1.90;99.90;;;;;;5053065;28;20284;-78
2021/04/08 03:21:47;;;;;;;6.23;4.50;;;1.90;99.90;;;;;;5052241;28;20663;-78
2021/04/08 03:24:14;;;;;;;7.43;4.87;;;1.80;99.90;;;;;;5051874;28;20254;-78
2021/04/08 03:26:41;;;;;;;8.00;4.73;;;1.80;99.90;;;;;;5052266;28;20624;-78
2021/04/08 03:29:08;;;;;;;9.77;4.93;;;1.70;99.90;;;;;;5041126;28;20252;-78
2021/04/08 03:31:36;;;;;;;8.70;4.83;;;1.70;99.90;;;;;;5032042;28;20280;-78
2021/04/08 03:34:03;;;;;;;6.87;4.63;;;1.70;99.90;;;;;;5032343;28;20610;-78
2021/04/08 03:36:30;;;;;;;7.27;4.63;;;1.60;99.90;;;;;;5032288;28;20289;-78
2021/04/08 03:38:56;;;;;;;9.00;4.67;;;1.50;99.90;;;;;;5031867;28;20241;-78
2021/04/08 03:41:24;;;;;;;9.47;4.73;;;1.40;99.90;;;;;;5032006;28;20304;-78
2021/04/08 03:43:51;;;;;;;8.60;4.83;;;1.30;99.90;;;;;;5032414;28;20236;-78
2021/04/08 03:46:19;;;;;;;8.30;4.90;;;1.30;99.90;;;;;;5031861;28;20589;-78
2021/04/08 03:48:48;;;;;;;9.50;4.90;;;1.20;99.90;;;;;;5032006;28;20680;-78
2021/04/08 03:51:17;;;;;;;11.60;4.67;;;1.20;99.90;;;;;;5034750;28;20733;-78
2021/04/08 03:53:44;;;;;;;7.53;4.90;;;1.20;99.90;;;;;;5051123;28;20289;-78
2021/04/08 03:56:11;;;;;;;11.10;4.93;;;1.20;99.90;;;;;;5051824;28;20285;-78
2021/04/08 03:58:39;;;;;;;9.30;5.47;;;1.20;99.90;;;;;;5051025;28;20292;-78
2021/04/08 04:01:06;;;;;;;6.80;4.90;;;1.30;99.90;;;;;;5051028;28;20331;-78
2021/04/08 04:03:33;;;;;;;10.10;5.83;;;1.40;99.90;;;;;;5033456;28;20232;-78
2021/04/08 04:06:00;;;;;;;9.83;5.80;;;1.40;99.90;;;;;;5048552;28;20286;-78
2021/04/08 04:08:27;;;;;;;7.97;5.50;;;1.50;99.90;;;;;;5051158;28;20671;-78
2021/04/08 04:10:54;;;;;;;10.43;5.47;;;1.60;99.90;;;;;;5051842;28;20228;-78
2021/04/08 04:13:21;;;;;;;8.23;5.17;;;1.70;99.90;;;;;;5038511;28;20367;-78
2021/04/08 04:15:49;;;;;;;7.33;4.93;;;1.70;99.90;;;;;;5061693;28;20747;-78
2021/04/08 04:18:17;;;;;;;7.67;4.97;;;1.80;99.90;;;;;;5071053;28;20206;-78
2021/04/08 04:20:44;;;;;;;7.87;4.63;;;1.90;99.90;;;;;;5071313;28;20266;-78
2021/04/08 04:23:12;;;;;;;7.47;5.00;;;1.90;99.90;;;;;;5071386;28;20622;-78
2021/04/08 04:25:39;;;;;;;8.47;5.20;;;1.90;99.90;;;;;;5071472;28;20331;-78
2021/04/08 04:28:05;;;;;;;8.33;5.30;;;1.90;99.90;;;;;;5071544;28;20294;-78
2021/04/08 04:30:32;;;;;;;10.40;5.37;;;2.00;99.90;;;;;;5071582;28;20223;-78
2021/04/08 04:32:58;;;;;;;7.03;4.90;;;1.90;99.90;;;;;;5071181;28;20323;-77
2021/04/08 04:35:25;;;;;;;7.13;5.07;;;2.00;99.90;;;;;;5073165;28;20287;-78
2021/04/08 04:37:51;;;;;;;8.30;5.47;;;2.00;99.90;;;;;;5075161;28;20411;-78
2021/04/08 04:40:19;;;;;;;7.87;5.50;;;2.10;99.90;;;;;;5056535;28;20292;-78
2021/04/08 04:42:46;;;;;;;7.93;5.33;;;2.10;99.90;;;;;;5045384;28;20297;-78
2021/04/08 04:45:15;;;;;;;10.90;5.73;;;2.20;99.90;;;;;;5049278;28;20284;-78
2021/04/08 04:47:42;;;;;;;9.63;5.90;;;2.20;99.90;;;;;;5035431;28;20206;-79
2021/04/08 04:50:10;;;;;;;8.97;6.30;;;2.30;99.90;;;;;;5041105;28;20730;-78
2021/04/08 04:52:36;;;;;;;9.30;6.20;;;2.30;99.90;;;;;;5054695;28;20285;-77
2021/04/08 04:55:03;;;;;;;9.27;5.67;;;2.30;99.90;;;;;;5059197;28;20736;-78
2021/04/08 04:57:30;;;;;;;9.27;6.40;;;2.40;99.90;;;;;;5075339;28;20232;-78
2021/04/08 04:59:57;;;;;;;11.27;5.57;;;2.30;99.90;;;;;;5075047;28;20230;-76
2021/04/08 05:02:23;;;;;;;10.00;5.70;;;2.40;99.90;;;;;;5067142;28;20330;-79
2021/04/08 05:04:50;;;;;;;9.90;6.33;;;2.40;99.90;;;;;;5054783;28;20247;-79
2021/04/08 05:07:16;;;;;;;8.00;5.87;;;2.40;99.90;;;;;;5055300;28;20289;-78
2021/04/08 05:09:43;;;;;;;9.97;5.80;;;2.40;99.90;;;;;;5054411;28;20289;-77
2021/04/08 05:12:10;;;;;;;9.30;5.80;;;2.30;99.90;;;;;;5040954;28;20306;-78
2021/04/08 05:14:37;;;;;;;8.73;6.63;;;2.30;99.90;;;;;;5074898;28;20284;-78
2021/04/08 05:17:03;;;;;;;11.93;7.63;;;2.40;99.90;;;;;;5041663;28;20678;-77
2021/04/08 05:19:31;;;;;;;13.50;8.17;;;2.40;99.90;;;;;;5034676;28;20354;-77
2021/04/08 05:21:57;;;;;;;10.57;8.00;;;2.40;99.90;;;;;;5034394;28;20233;-77
2021/04/08 05:24:24;;;;;;;12.73;7.50;;;2.30;99.90;;;;;;5043795;28;20643;-78
2021/04/08 05:26:50;;;;;;;11.90;7.83;;;2.30;99.90;;;;;;5072244;28;20292;-78
2021/04/08 05:29:17;;;;;;;11.03;7.60;;;2.30;99.90;;;;;;5063909;28;20284;-77
2021/04/08 05:31:44;;;;;;;13.40;6.83;;;2.30;99.90;;;;;;5064320;28;20318;-76
2021/04/08 05:34:10;;;;;;;8.90;6.30;;;2.20;99.90;;;;;;5033797;28;20238;-77
2021/04/08 05:36:37;;;;;;;10.90;6.17;;;2.20;99.90;;;;;;5048744;28;20281;-77
2021/04/08 05:39:04;;;;;;;10.23;6.00;;;2.20;99.90;;;;;;5048398;28;20292;-77
2021/04/08 05:41:30;;;;;;;10.93;5.93;;;2.30;99.90;;;;;;5048683;28;20734;-75
2021/04/08 05:43:57;;;;;;;9.03;5.70;;;2.30;99.90;;;;;;5035065;28;20199;-76
2021/04/08 05:46:23;;;;;;;12.70;6.10;;;2.30;99.90;;;;;;5033516;28;20397;-76
2021/04/08 05:48:51;;;;;;;8.57;5.33;;;2.30;99.90;;;;;;5034018;28;20628;-77
2021/04/08 05:51:17;;;;;;;9.20;5.50;;;2.30;99.90;;;;;;5047061;28;20215;-76
2021/04/08 05:53:43;;;;;;;8.50;5.60;;;2.30;99.90;;;;;;5053584;28;20649;-79
2021/04/08 05:56:10;;;;;;;12.53;6.33;;;2.30;99.90;;;;;;5042806;28;20731;-78
2021/04/08 05:58:37;;;;;;;8.93;5.90;;;2.30;99.90;;;;;;5045881;28;20207;-76
2021/04/08 06:01:04;;;;;;;9.43;5.83;;;2.30;99.90;;;;;;5052647;28;20224;-75
2021/04/08 06:03:31;;;;;;;9.27;6.00;;;2.30;99.90;;;;;;5052345;28;20735;-76
2021/04/08 06:05:58;;;;;;;11.17;6.07;;;2.40;99.90;;;;;;5053892;28;20193;-76
2021/04/08 06:08:25;;;;;;;10.03;6.40;;;2.40;99.90;;;;;;5052273;28;20240;-76
2021/04/08 06:10:51;;;;;;;9.10;6.50;;;2.50;99.90;;;;;;5045242;28;20211;-75
2021/04/08 06:13:18;;;;;;;13.30;6.50;;;2.60;99.90;;;;;;5037736;28;20655;-76
2021/04/08 06:15:44;;;;;;;11.37;6.47;;;2.70;99.90;;;;;;5050494;28;20621;-75
2021/04/08 06:18:11;;;;;;;12.03;7.37;;;2.80;99.90;;;;;;5044893;28;20559;-76
2021/04/08 06:20:37;;;;;;;15.33;10.37;;;2.80;99.90;;;;;;5041496;28;20267;-76
2021/04/08 06:23:05;;;;;;;14.07;10.00;;;3.00;99.90;;;;;;5048206;28;20253;-76
2021/04/08 06:25:32;;;;;;;14.33;9.30;;;3.10;99.90;;;;;;5050452;28;20683;-76
2021/04/08 06:27:59;;;;;;;16.50;10.50;;;3.20;99.90;;;;;;5055777;28;20744;-76
2021/04/08 06:30:26;;;;;;;17.70;11.10;;;3.30;99.90;;;;;;5048438;28;20290;-77
2021/04/08 06:32:53;;;;;;;14.03;10.50;;;3.20;99.90;;;;;;5044310;28;20292;-77
2021/04/08 06:35:19;;;;;;;16.37;10.73;;;3.30;99.90;;;;;;5057692;28;20288;-77
2021/04/08 06:37:46;;;;;;;17.00;11.03;;;3.30;99.90;;;;;;5049251;28;20223;-77
2021/04/08 06:40:15;;;;;;;16.40;11.00;;;3.30;99.90;;;;;;5037186;28;20319;-77
2021/04/08 06:42:45;;;;;;;16.00;10.80;;;3.30;99.90;;;;;;5042933;28;20310;-77
2021/04/08 06:45:12;;;;;;;15.77;10.93;;;3.30;99.90;;;;;;5048794;28;20562;-77
2021/04/08 06:47:50;;;;;;;15.63;10.80;;;4.20;99.90;;;;;;5043736;28;20690;-77
2021/04/08 06:50:20;;;;;;;15.90;9.80;;;4.90;99.90;;;;;;5039785;28;20330;-77
2021/04/08 06:52:47;;;;;;;13.17;9.00;;;6.50;99.90;;;;;;5040681;28;20211;-77
2021/04/08 06:55:15;;;;;;;11.67;8.73;;;7.90;99.90;;;;;;5038167;28;20280;-78
2021/04/08 06:57:43;;;;;;;11.93;7.23;;;8.50;99.90;;;;;;5055818;28;20202;-78
2021/04/08 07:00:11;;;;;;;10.23;7.10;;;9.10;99.90;;;;;;5050591;28;20677;-78
2021/04/08 07:02:37;;;;;;;12.33;7.10;;;9.70;99.90;;;;;;5037772;28;20229;-78
2021/04/08 07:05:06;;;;;;;11.53;6.93;;;10.00;99.90;;;;;;5049254;28;20203;-78
2021/04/08 07:07:32;;;;;;;8.70;6.37;;;10.00;99.90;;;;;;5039751;28;20206;-79
2021/04/08 07:09:59;;;;;;;9.97;5.67;;;10.70;99.90;;;;;;5045413;28;20299;-78
2021/04/08 07:12:27;;;;;;;11.07;5.57;;;10.60;99.90;;;;;;5045354;28;21518;-78
2021/04/08 07:14:54;;;;;;;5.97;4.57;;;11.10;99.90;;;;;;5041148;28;20283;-78
2021/04/08 07:17:20;;;;;;;7.20;4.77;;;11.90;99.90;;;;;;5049704;28;20207;-77
2021/04/08 07:19:47;;;;;;;5.27;4.50;;;12.10;99.90;;;;;;5042346;28;20200;-77
2021/04/08 07:22:20;;;;;;;7.63;4.93;;;12.70;99.90;;;;;;5041060;28;20255;-78
2021/04/08 07:24:48;;;;;;;6.53;4.97;;;12.90;99.90;;;;;;5047420;28;20279;-78
2021/04/08 07:27:22;;;;;;;5.67;4.47;;;13.80;99.90;;;;;;5044627;28;20287;-78
2021/04/08 07:29:56;;;;;;;6.10;4.60;;;13.50;99.90;;;;;;5034107;28;20212;-77
2021/04/08 07:32:28;;;;;;;5.00;3.58;;;14.20;99.90;;;;;;5045221;28;20706;-78
2021/04/08 07:34:57;;;;;;;5.47;3.80;;;14.20;99.90;;;;;;5047900;28;20200;-78
2021/04/08 07:37:28;;;;;;;6.13;3.13;;;14.50;99.90;;;;;;5038406;28;20688;-79
2021/04/08 07:40:01;;;;;;;4.70;2.97;;;14.50;99.90;;;;;;5042184;28;20200;-79
2021/04/08 07:42:29;;;;;;;6.47;2.80;;;14.30;99.90;;;;;;5044887;28;20314;-78
2021/04/08 07:44:58;;;;;;;6.90;3.10;;;14.40;99.90;;;;;;5047707;28;20290;-79
2021/04/08 07:47:28;;;;;;;6.68;3.70;;;14.70;99.90;;;;;;5040794;28;20197;-79
2021/04/08 07:49:57;;;;;;;5.35;3.10;;;15.00;99.90;;;;;;5054515;28;20231;-79
2021/04/08 07:52:29;;;;;;;6.15;2.67;;;15.20;99.90;;;;;;5042736;28;20282;-78
2021/04/08 07:55:10;;;;;;;5.70;2.10;;;15.30;99.90;;;;;;5039200;28;20199;-79
2021/04/08 07:58:01;;;;;;;3.80;2.00;;;15.80;99.90;;;;;;5039345;28;20300;-78
2021/04/08 08:00:31;;;;;;;4.22;1.70;;;15.70;99.90;;;;;;5040192;28;20203;-79
2021/04/08 08:03:02;;;;;;;2.45;0.98;;;16.00;99.90;;;;;;5043744;28;20224;-77
2021/04/08 08:05:32;;;;;;;2.50;1.20;;;15.60;99.90;;;;;;5046663;28;20362;-77
2021/04/08 08:08:11;;;;;;;5.15;1.13;;;15.30;99.90;;;;;;5040928;28;20327;-78
2021/04/08 08:10:40;;;;;;;4.50;1.40;;;16.10;99.90;;;;;;5036445;28;20204;-77
2021/04/08 08:13:23;;;;;;;4.28;1.35;;;16.40;99.90;;;;;;5035613;28;20611;-78
2021/04/08 08:15:51;;;;;;;2.92;1.38;;;16.30;99.90;;;;;;5044767;28;20282;-78
2021/04/08 08:18:26;;;;;;;4.13;1.23;;;16.40;99.90;;;;;;5035295;28;20291;-78
2021/04/08 08:21:06;;;;;;;5.50;1.50;;;15.00;99.90;;;;;;5048719;28;20711;-78
2021/04/08 08:23:40;;;;;;;4.25;1.50;;;15.50;99.90;;;;;;5040920;28;20204;-77
2021/04/08 08:26:27;;;;;;;2.78;1.20;;;14.90;99.90;;;;;;5046457;28;20295;-77
2021/04/08 08:28:54;;;;;;;5.57;1.58;;;14.50;99.90;;;;;;5043502;28;20366;-77
2021/04/08 08:31:39;;;;;;;4.20;1.48;;;15.40;99.90;;;;;;5042952;28;20274;-77
2021/04/08 08:34:08;;;;;;;5.13;1.70;;;15.70;99.90;;;;;;5041584;28;20228;-76
2021/04/08 08:36:35;;;;;;;4.80;1.35;;;15.60;99.90;;;;;;5046660;28;20196;-76
2021/04/08 08:39:04;;;;;;;3.50;1.52;;;16.20;99.90;;;;;;5041119;28;20212;-77
2021/04/08 08:41:31;;;;;;;3.65;1.50;;;15.50;99.90;;;;;;5045025;28;20767;-76
2021/04/08 08:43:58;;;;;;;4.38;1.40;;;16.00;99.90;;;;;;5031565;28;20291;-76
2021/04/08 08:46:26;;;;;;;3.47;1.38;;;17.00;99.90;;;;;;5035501;28;20290;-77
2021/04/08 08:48:54;;;;;;;2.60;1.20;;;17.10;99.90;;;;;;5042159;28;20207;-77
2021/04/08 08:51:22;;;;;;;4.70;1.20;;;16.70;99.90;;;;;;5045930;28;20279;-76
2021/04/08 08:53:52;;;;;;;2.17;1.20;;;17.00;99.90;;;;;;5043432;28;20746;-76
2021/04/08 08:56:20;;;;;;;5.57;1.67;;;16.80;99.90;;;;;;5044371;28;20195;-76
2021/04/08 08:58:46;;;;;;;3.47;1.20;;;16.90;99.90;;;;;;5033327;28;20197;-76
2021/04/08 09:01:14;;;;;;;2.95;1.17;;;16.80;99.90;;;;;;5039647;28;20355;-76
2021/04/08 09:03:41;;;;;;;3.40;1.30;;;17.10;99.90;;;;;;5044897;28;20200;-77
2021/04/08 09:06:08;;;;;;;4.00;1.20;;;18.40;99.90;;;;;;5039558;28;20263;-75
2021/04/08 09:08:38;;;;;;;5.47;1.30;;;18.70;99.90;;;;;;5044003;28;20288;-76
2021/04/08 09:11:05;;;;;;;3.08;1.10;;;18.30;96.80;;;;;;5039626;28;20300;-77
2021/04/08 09:13:32;;;;;;;3.08;1.10;;;17.10;97.00;;;;;;5038401;28;20270;-78
2021/04/08 09:16:02;;;;;;;3.35;1.00;;;17.60;98.50;;;;;;5041412;28;20314;-82
2021/04/08 09:18:32;;;;;;;2.97;0.80;;;19.00;98.40;;;;;;5036758;28;20220;-81
2021/04/08 09:20:59;;;;;;;3.35;0.98;;;18.60;96.00;;;;;;5039702;28;20706;-80
2021/04/08 09:23:27;;;;;;;4.57;1.02;;;18.40;96.20;;;;;;5050733;28;20266;-81
2021/04/08 09:26:01;;;;;;;3.33;1.10;;;17.60;95.70;;;;;;5044517;28;20679;-81
2021/04/08 09:28:53;;;;;;;3.72;1.25;;;17.80;96.30;;;;;;5041341;28;20676;-81
2021/04/08 09:31:31;;;;;;;2.28;1.10;;;17.80;97.50;;;;;;5038944;28;20587;-81
2021/04/08 09:34:01;;;;;;;3.70;0.93;;;18.60;95.90;;;;;;5038871;28;20224;-81
2021/04/08 09:36:52;;;;;;;2.67;1.10;;;20.60;97.20;;;;;;5041918;28;20723;-81
2021/04/08 09:39:27;;;;;;;2.38;1.23;;;20.90;95.50;;;;;;5048413;28;20286;-80
2021/04/08 09:42:02;;;;;;;1.95;1.00;;;18.70;92.10;;;;;;5047730;28;20211;-81
2021/04/08 09:44:29;;;;;;;2.25;0.85;;;17.20;95.70;;;;;;5039344;28;20569;-81
2021/04/08 09:46:57;;;;;;;2.35;1.10;;;15.30;97.10;;;;;;5047367;28;20576;-80
2021/04/08 09:49:57;;;;;;;2.30;0.90;;;15.00;99.90;;;;;;5040482;28;20200;-81
2021/04/08 09:52:23;;;;;;;2.73;1.00;;;14.90;99.90;;;;;;5052204;28;20216;-80
2021/04/08 09:54:56;;;;;;;3.80;1.00;;;15.60;98.60;;;;;;5037884;28;20216;-81
2021/04/08 09:57:37;;;;;;;1.92;0.70;;;16.70;95.90;;;;;;5038679;28;20236;-81
2021/04/08 10:00:12;;;;;;;1.63;0.90;;;17.10;94.40;;;;;;5049297;28;20207;-81
2021/04/08 10:02:39;;;;;;;2.93;1.67;;;15.80;93.50;;;;;;5042201;28;20221;-81
2021/04/08 10:05:08;;;;;;;5.83;1.33;;;15.20;97.70;;;;;;5045993;28;20287;-81
2021/04/08 10:07:48;;;;;;;2.53;1.20;;;15.50;98.70;;;;;;5042677;28;20674;-80
2021/04/08 10:10:16;;;;;;;2.83;1.30;;;18.10;98.00;;;;;;5043254;28;20330;-81
2021/04/08 10:12:42;;;;;;;3.03;2.08;;;19.80;94.50;;;;;;5047326;28;20220;-81
2021/04/08 10:15:10;;;;;;;3.38;1.10;;;21.10;92.90;;;;;;5036631;28;20200;-81
2021/04/08 10:17:37;;;;;;;1.75;1.00;;;21.20;91.20;;;;;;5047878;28;20227;-80
2021/04/08 10:20:06;;;;;;;3.47;1.00;;;22.30;87.30;;;;;;5036818;28;20231;-81
2021/04/08 10:22:40;;;;;;;2.47;1.30;;;20.70;83.30;;;;;;5044449;28;20219;-81
2021/04/08 10:25:08;;;;;;;2.35;1.10;;;16.40;87.00;;;;;;5052419;28;20635;-81
2021/04/08 10:27:35;;;;;;;1.75;1.10;;;16.40;91.90;;;;;;5042781;28;20210;-81
2021/04/08 10:30:13;;;;;;;3.70;1.13;;;17.40;90.90;;;;;;5041421;28;20262;-81
2021/04/08 10:32:41;;;;;;;2.60;1.20;;;17.70;89.70;;;;;;5036109;28;20252;-80
2021/04/08 10:35:19;;;;;;;1.55;1.00;;;19.40;92.00;;;;;;5047067;28;20676;-81
2021/04/08 10:37:46;;;;;;;4.95;1.25;;;16.20;90.70;;;;;;5046043;28;20243;-80
2021/04/08 10:40:13;;;;;;;3.28;1.27;;;15.80;94.80;;;;;;5049338;28;20273;-80
2021/04/08 10:42:40;;;;;;;4.38;1.10;;;18.50;96.20;;;;;;5049721;28;20234;-80
2021/04/08 10:45:09;;;;;;;2.17;1.05;;;20.80;89.40;;;;;;5038627;28;20236;-80
2021/04/08 10:47:37;;;;;;;2.92;1.10;;;21.30;86.10;;;;;;5043751;28;20199;-81
2021/04/08 10:50:05;;;;;;;2.25;1.10;;;22.80;89.50;;;;;;5047181;28;20201;-81
2021/04/08 10:52:34;;;;;;;2.40;1.50;;;19.30;82.80;;;;;;5051368;28;20206;-79
2021/04/08 10:55:02;;;;;;;2.63;1.35;;;15.30;91.90;;;;;;5043387;28;20211;-82
2021/04/08 10:57:29;;;;;;;2.83;1.50;;;14.00;99.40;;;;;;5049401;28;20593;-82
2021/04/08 10:59:57;;;;;;;4.50;1.57;;;14.20;99.90;;;;;;5046642;28;20296;-82
2021/04/08 11:02:25;;;;;;;2.70;1.50;;;14.80;99.90;;;;;;5047594;28;20307;-84
2021/04/08 11:04:53;;;;;;;2.90;1.60;;;15.20;99.90;;;;;;5041575;28;20647;-83
2021/04/08 11:07:20;;;;;;;3.50;1.30;;;15.60;99.90;;;;;;5041344;28;20265;-83
2021/04/08 11:09:47;;;;;;;3.40;1.60;;;15.30;98.90;;;;;;5045787;28;20199;-82
2021/04/08 11:12:22;;;;;;;4.97;1.60;;;15.60;98.80;;;;;;5042092;28;20208;-82
2021/04/08 11:14:50;;;;;;;2.67;1.70;;;18.40;94.70;;;;;;5044552;28;20298;-82
2021/04/08 11:17:22;;;;;;;3.93;1.90;;;18.60;91.70;;;;;;5049614;28;20675;-84
2021/04/08 11:19:53;;;;;;;4.70;1.73;;;18.10;93.60;;;;;;5045502;28;20195;-81
2021/04/08 11:22:24;;;;;;;2.67;1.60;;;17.20;94.80;;;;;;5045186;28;20259;-81
2021/04/08 11:24:53;;;;;;;3.50;1.87;;;16.90;95.60;;;;;;5037101;28;20197;-79
2021/04/08 11:27:28;;;;;;;4.57;1.80;;;17.40;95.50;;;;;;5042193;28;20282;-82
2021/04/08 11:29:55;;;;;;;3.93;1.80;;;17.90;94.00;;;;;;5037627;28;20291;-79
2021/04/08 11:32:23;;;;;;;4.30;1.70;;;16.80;94.70;;;;;;5042900;28;20962;-80
2021/04/08 11:34:58;;;;;;;2.33;1.70;;;16.40;97.50;;;;;;5046875;28;20298;-79
2021/04/08 11:37:37;;;;;;;2.03;1.57;;;16.60;97.20;;;;;;5045871;28;20231;-80
2021/04/08 11:40:06;;;;;;;2.77;1.80;;;16.10;98.20;;;;;;5048376;28;20291;-80
2021/04/08 11:42:34;;;;;;;4.87;2.27;;;16.40;99.10;;;;;;5042207;28;20342;-79
2021/04/08 11:45:24;;;;;;;3.47;2.40;;;15.90;98.50;;;;;;5049094;28;20683;-79
2021/04/08 11:47:59;;;;;;;2.50;1.80;;;14.70;98.00;;;;;;5046439;28;20247;-80
2021/04/08 11:50:32;;;;;;;2.83;1.53;;;16.20;99.90;;;;;;5046901;28;20237;-77
2021/04/08 11:53:06;;;;;;;5.93;2.13;;;18.70;92.90;;;;;;5037832;28;20281;-77
2021/04/08 11:55:39;;;;;;;4.68;1.92;;;20.80;91.40;;;;;;5047326;28;20195;-78
2021/04/08 11:58:08;;;;;;;3.20;2.03;;;18.10;87.00;;;;;;5032201;28;20296;-77
2021/04/08 12:00:36;;;;;;;2.37;1.80;;;17.20;91.70;;;;;;5043678;28;20234;-78
2021/04/08 12:03:17;;;;;;;3.93;1.93;;;16.50;92.60;;;;;;5042433;28;20299;-78
2021/04/08 12:05:44;;;;;;;4.53;2.03;;;14.30;96.00;;;;;;5041957;28;20253;-78
2021/04/08 12:08:11;;;;;;;4.20;2.00;;;13.30;99.90;;;;;;5046305;28;20209;-78
2021/04/08 12:10:38;;;;;;;3.77;2.10;;;13.40;99.90;;;;;;5042901;28;20580;-77
2021/04/08 12:13:09;;;;;;;4.57;2.10;;;14.40;99.90;;;;;;5046920;28;20356;-77
2021/04/08 12:15:45;;;;;;;6.10;4.00;;;16.10;99.90;;;;;;5044755;28;20199;-78
2021/04/08 12:18:25;;;;;;;6.10;3.53;;;18.60;96.50;;;;;;5043217;28;20204;-78
2021/04/08 12:20:52;;;;;;;3.40;2.17;;;18.80;93.30;;;;;;5037829;28;20192;-77
2021/04/08 12:23:23;;;;;;;6.32;4.75;;;19.80;96.50;;;;;;5047100;28;20695;-78
2021/04/08 12:25:52;;;;;;;4.32;1.90;;;22.00;93.70;;;;;;5037400;28;20287;-78
2021/04/08 12:28:22;;;;;;;3.97;1.95;;;22.00;87.80;;;;;;5044418;28;20611;-78
2021/04/08 12:30:59;;;;;;;3.85;1.90;;;17.30;89.10;;;;;;5042129;28;20287;-78
2021/04/08 12:33:28;;;;;;;3.88;2.20;;;17.90;90.80;;;;;;5049084;28;20275;-78
2021/04/08 12:35:58;;;;;;;2.97;1.90;;;17.20;91.00;;;;;;5047169;28;20702;-78
2021/04/08 12:38:25;;;;;;;3.22;2.30;;;16.90;93.80;;;;;;5045694;28;20254;-79
2021/04/08 12:40:53;;;;;;;3.57;2.00;;;16.40;92.50;;;;;;5041383;28;20235;-78
2021/04/08 12:43:20;;;;;;;2.80;2.20;;;16.30;95.60;;;;;;5039360;28;20230;-79
2021/04/08 12:45:53;;;;;;;3.60;2.13;;;17.60;91.50;;;;;;5039693;28;20220;-79
2021/04/08 12:48:19;;;;;;;3.67;1.93;;;17.30;92.30;;;;;;5041681;28;20662;-79
2021/04/08 12:50:51;;;;;;;4.33;2.10;;;19.20;91.90;;;;;;5039375;28;20254;-79
2021/04/08 12:53:20;;;;;;;3.57;2.00;;;18.50;92.10;;;;;;5041708;28;20200;-79
2021/04/08 12:55:47;;;;;;;3.30;2.37;;;18.70;92.40;;;;;;5041755;28;20287;-79
2021/04/08 12:58:13;;;;;;;3.80;2.20;;;18.40;91.80;;;;;;5050654;28;20306;-79
2021/04/08 13:00:40;;;;;;;2.30;2.00;;;16.70;92.10;;;;;;5050197;28;20249;-79
2021/04/08 13:03:09;;;;;;;2.93;2.20;;;16.20;95.40;;;;;;5047925;28;20231;-79